American Integrity — WDD2875 — position and weather

sailwx.info

Track history (hours):
 
Tides and Currents Weather Stations Pressure Air Temp Water Temp Dewpoint Dewpoint Depression Visibility Wind Speed Wind Dir Waves Ship Positions

American Integrity

Owner: American Steamship Company, Williamsville, NY. More information available from US FCC via Universal Licensing System and Coast Guard Vessel Documentation Center.

Last reported at 2018-Jan-10 19:18 UTC. Time now 2018-Feb-17 20:11 UTC.
Position N 45°42' W 086°05'.
Warning: this ship's position is 38 days out of date.

; draft 8 m.

Type: Cargo ship. MMSI: 367120990.

Date/timePositionNaut miles runAvg speedWind from/ knotsBaromVisibWave heightAir tempDewpointWater temp
2018-Jan-10 19:18N 45°42' W 086°05'410.3
2018-Jan-10 18:54N 45°44' W 086°00'410.8
2018-Jan-10 18:30N 45°46' W 085°55'611.5
2018-Jan-10 18:00N 45°49' W 085°48'611.8
2018-Jan-10 17:31N 45°51' W 085°41'611.6
2018-Jan-10 17:00N 45°54' W 085°33'612.0
2018-Jan-10 16:31N 45°53' W 085°24'510.8
2018-Jan-10 16:00N 45°53' W 085°16'510.5
2018-Jan-10 15:30N 45°52' W 085°09'5 9.9
2018-Jan-10 15:00N 45°51' W 085°02'611.5
2018-Jan-10 14:31N 45°50' W 084°54'612.4
2018-Jan-10 14:00N 45°49' W 084°45'611.1
2018-Jan-10 13:30N 45°50' W 084°37'4 8.5
2018-Jan-10 12:59N 45°52' W 084°31'0 0.6
2018-Jan-10 12:27N 45°52' W 084°31'0 0.0
2018-Jan-10 11:57N 45°52' W 084°31'0 0.0
2018-Jan-10 11:27N 45°52' W 084°31'0 0.0
2018-Jan-10 10:57N 45°52' W 084°31'0 0.0
2018-Jan-10 10:15N 45°52' W 084°31'0 0.0
2018-Jan-10 09:57N 45°52' W 084°31'0 0.0
2018-Jan-10 09:27N 45°52' W 084°31'0 0.0
2018-Jan-10 08:51N 45°52' W 084°31'0 0.0
2018-Jan-10 08:03N 45°52' W 084°31'0 0.1
2018-Jan-10 07:57N 45°52' W 084°31'0 0.5
2018-Jan-10 07:28N 45°52' W 084°31'4 9.7
2018-Jan-10 07:01N 45°52' W 084°25'612.5
2018-Jan-10 06:31N 45°53' W 084°16'  
2018-Jan-08 01:15N 47°01' W 091°31'312.5
2018-Jan-08 01:01N 46°59' W 091°35'612.6
2018-Jan-08 00:30N 46°55' W 091°42'612.5
2018-Jan-08 00:00N 46°52' W 091°50'612.6
2018-Jan-07 23:30N 46°49' W 091°58'510.4
2018-Jan-07 23:01N 46°47' W 092°05'1 2.8
2018-Jan-07 22:30N 46°46' W 092°06'1 2.0
2018-Jan-07 22:00N 46°45' W 092°07'1 1.6
2018-Jan-07 21:30N 46°45' W 092°08'0 0.4
2018-Jan-07 21:00N 46°45' W 092°08'0 0.4
2018-Jan-07 20:29N 46°45' W 092°08'0 0.0
2018-Jan-07 20:00N 46°45' W 092°08'0 0.0
2018-Jan-07 19:30N 46°45' W 092°08'0 0.0
2018-Jan-07 19:00N 46°45' W 092°08'0 0.0
2018-Jan-07 18:30N 46°45' W 092°08'0 0.0
2018-Jan-07 18:00N 46°45' W 092°08'0 0.0
2018-Jan-07 17:29N 46°45' W 092°08'0 0.0
2018-Jan-07 17:00N 46°45' W 092°08'0 0.0
2018-Jan-07 16:29N 46°45' W 092°08'0 0.0
2018-Jan-07 16:00N 46°45' W 092°08'0 0.0
2018-Jan-07 15:30N 46°45' W 092°08'0 0.0
2018-Jan-07 15:01N 46°45' W 092°08'0 0.0
2018-Jan-07 14:30N 46°45' W 092°08'0 0.0
2018-Jan-07 14:00N 46°45' W 092°08'0 0.0
2018-Jan-07 13:30N 46°45' W 092°08'0 0.0
2018-Jan-07 13:00N 46°45' W 092°08'0 0.0
2018-Jan-07 12:30N 46°45' W 092°08'0 0.0
2018-Jan-07 12:00N 46°45' W 092°08'0 0.0
2018-Jan-07 11:30N 46°45' W 092°08'0 0.0
2018-Jan-07 11:00N 46°45' W 092°08'0 0.0
2018-Jan-07 10:31N 46°45' W 092°08'0 0.0
2018-Jan-07 10:00N 46°45' W 092°08'0 0.0
2018-Jan-07 09:31N 46°45' W 092°08'0 0.0
2018-Jan-07 09:00N 46°45' W 092°08'1 1.5
2018-Jan-07 08:30N 46°45' W 092°07'1 2.4
2018-Jan-07 08:00N 46°45' W 092°06'1 2.9
2018-Jan-07 07:30N 46°47' W 092°06'3 6.4
2018-Jan-07 07:01N 46°48' W 092°02'611.5
2018-Jan-07 06:30N 46°50' W 091°54'510.7
2018-Jan-07 06:00N 46°52' W 091°47'611.1
2018-Jan-07 05:30N 46°54' W 091°39'611.2
2018-Jan-07 05:00N 46°57' W 091°32'4 6.3
2018-Jan-07 04:21N 46°59' W 091°27'2 6.7
2018-Jan-07 04:00N 46°58' W 091°30'3 6.7
2018-Jan-07 03:30N 46°56' W 091°34'3 6.5
2018-Jan-07 03:00N 46°54' W 091°38'3 6.4
2018-Jan-07 02:30N 46°53' W 091°42'4 7.1
2018-Jan-07 02:00N 46°51' W 091°46'5 9.8
2018-Jan-07 01:30N 46°49' W 091°52'4 4.2
2018-Jan-07 00:30N 46°50' W 091°47'611.6
2018-Jan-07 00:01N 46°48' W 091°54'611.0
2018-Jan-06 23:31N 46°47' W 092°02'3 5.5
2018-Jan-06 23:01N 46°46' W 092°06'2 3.1
2018-Jan-06 22:30N 46°45' W 092°07'1 1.9
2018-Jan-06 22:00N 46°45' W 092°08'0 0.0
2018-Jan-06 21:30N 46°45' W 092°08'0 0.0
2018-Jan-06 21:01N 46°45' W 092°08'0 0.0
2018-Jan-06 20:30N 46°45' W 092°08'0 0.0
2018-Jan-06 20:01N 46°45' W 092°08'0 0.0
2018-Jan-06 19:30N 46°45' W 092°08'0 0.0
2018-Jan-06 19:01N 46°45' W 092°08'0 0.0
2018-Jan-06 18:30N 46°45' W 092°08'0 0.0
2018-Jan-06 18:00N 46°45' W 092°08'0 0.0
2018-Jan-06 17:30N 46°45' W 092°08'0 0.0
2018-Jan-06 17:00N 46°45' W 092°08'0 0.0
2018-Jan-06 16:29N 46°45' W 092°08'0 0.0
2018-Jan-06 16:00N 46°45' W 092°08'0 0.0
2018-Jan-06 15:29N 46°45' W 092°08'0 0.0
2018-Jan-06 15:00N 46°45' W 092°08'0 0.0
2018-Jan-06 14:30N 46°45' W 092°08'0 0.0
2018-Jan-06 14:00N 46°45' W 092°08'0 0.0
2018-Jan-06 13:30N 46°45' W 092°08'0 0.0
2018-Jan-06 13:00N 46°45' W 092°08'0 0.0
2018-Jan-06 12:30N 46°45' W 092°08'0 0.0
2018-Jan-06 12:00N 46°45' W 092°08'0 0.0
2018-Jan-06 11:30N 46°45' W 092°08'0 0.0
2018-Jan-06 11:01N 46°45' W 092°08'0 0.0
2018-Jan-06 10:31N 46°45' W 092°08'0 0.0
2018-Jan-06 10:00N 46°45' W 092°08'0 0.0
2018-Jan-06 09:30N 46°45' W 092°08'0 0.0
2018-Jan-06 09:01N 46°45' W 092°08'0 0.0
2018-Jan-06 08:30N 46°45' W 092°08'0 0.0
2018-Jan-06 07:59N 46°45' W 092°08'0 0.0
2018-Jan-06 07:30N 46°45' W 092°08'0 0.0
2018-Jan-06 07:01N 46°45' W 092°08'0 0.0
2018-Jan-06 06:31N 46°45' W 092°08'0 0.0
2018-Jan-06 06:01N 46°45' W 092°08'0 0.0
2018-Jan-06 05:30N 46°45' W 092°08'0 0.0
2018-Jan-06 05:00N 46°45' W 092°08'0 0.0
2018-Jan-06 04:30N 46°45' W 092°08'0 0.0
2018-Jan-06 04:00N 46°45' W 092°08'0 0.0
2018-Jan-06 03:30N 46°45' W 092°08'0 0.0
2018-Jan-06 03:00N 46°45' W 092°08'0 0.0
2018-Jan-06 02:30N 46°45' W 092°08'0 0.0
2018-Jan-06 02:00N 46°45' W 092°08'0 0.0
2018-Jan-06 01:30N 46°45' W 092°08'0 0.0
2018-Jan-06 01:00N 46°45' W 092°08'0 0.0
2018-Jan-06 00:30N 46°45' W 092°08'0 0.0
2018-Jan-06 00:00N 46°45' W 092°08'0 0.0
2018-Jan-05 23:30N 46°45' W 092°08'0 0.0
2018-Jan-05 23:00N 46°45' W 092°08'0 0.0
2018-Jan-05 22:30N 46°45' W 092°08'0 0.1
2018-Jan-05 22:00N 46°45' W 092°08'0 0.5
2018-Jan-05 21:30N 46°45' W 092°08'0 0.4
2018-Jan-05 21:01N 46°45' W 092°08'0 0.4
2018-Jan-05 20:31N 46°45' W 092°07'0 1.0
2018-Jan-05 20:01N 46°45' W 092°07'1 1.8
2018-Jan-05 19:31N 46°45' W 092°06'2 4.6
2018-Jan-05 19:00N 46°47' W 092°04'611.5
2018-Jan-05 18:30N 46°49' W 091°56'2 3.7
2018-Jan-05 18:00N 46°47' W 091°55'0 0.0
2018-Jan-05 17:30N 46°47' W 091°55'0 0.1
2018-Jan-05 17:01N 46°47' W 091°55'0 0.1
2018-Jan-05 16:30N 46°47' W 091°55'0 0.1
2018-Jan-05 16:01N 46°47' W 091°55'0 0.1
2018-Jan-05 15:30N 46°47' W 091°55'0 0.0
2018-Jan-05 15:01N 46°47' W 091°55'0 0.0
2018-Jan-05 14:31N 46°47' W 091°55'0 0.0
2018-Jan-05 14:00N 46°47' W 091°55'0 0.0
2018-Jan-05 13:30N 46°47' W 091°55'0 0.0
2018-Jan-05 13:00N 46°47' W 091°55'1 1.2
2018-Jan-05 12:31N 46°46' W 091°56'1 2.8
2018-Jan-05 12:00N 46°48' W 091°56'0 0.1
2018-Jan-05 11:30N 46°48' W 091°56'0 0.1
2018-Jan-05 11:00N 46°48' W 091°56'0 0.1
2018-Jan-05 10:30N 46°48' W 091°56'0 0.0
2018-Jan-05 10:00N 46°48' W 091°56'0 0.0
2018-Jan-05 09:30N 46°48' W 091°56'0 0.0
2018-Jan-05 09:00N 46°48' W 091°56'0 0.1
2018-Jan-05 08:30N 46°48' W 091°56'0 0.0
2018-Jan-05 08:00N 46°48' W 091°56'0 0.0
2018-Jan-05 07:31N 46°48' W 091°56'0 0.0
2018-Jan-05 07:01N 46°48' W 091°56'0 0.0
2018-Jan-05 06:30N 46°48' W 091°56'0 0.0
2018-Jan-05 06:00N 46°48' W 091°56'0 0.0
2018-Jan-05 05:31N 46°48' W 091°56'0 0.0
2018-Jan-05 05:00N 46°48' W 091°56'0 0.1
2018-Jan-05 04:30N 46°48' W 091°56'0 0.0
2018-Jan-05 04:01N 46°48' W 091°56'0 0.0
2018-Jan-05 03:30N 46°48' W 091°56'0 0.0
2018-Jan-05 03:00N 46°48' W 091°56'0 0.0
2018-Jan-05 02:30N 46°48' W 091°56'0 0.0
2018-Jan-05 02:00N 46°48' W 091°56'0 0.0
2018-Jan-05 01:31N 46°48' W 091°56'0 0.0
2018-Jan-05 01:01N 46°48' W 091°56'0 0.0
2018-Jan-05 00:30N 46°48' W 091°56'0 0.0
2018-Jan-05 00:00N 46°48' W 091°56'0 0.0
2018-Jan-04 23:30N 46°48' W 091°56'0 0.1
2018-Jan-04 23:00N 46°48' W 091°56'0 0.5
2018-Jan-04 22:30N 46°48' W 091°56'0 0.1
2018-Jan-04 22:00N 46°48' W 091°56'0 0.1
2018-Jan-04 21:30N 46°48' W 091°56'0 0.0
2018-Jan-04 21:00N 46°48' W 091°56'0 0.0
2018-Jan-04 20:30N 46°48' W 091°56'0 0.0
2018-Jan-04 20:00N 46°48' W 091°56'0 0.0
2018-Jan-04 19:30N 46°48' W 091°56'0 0.1
2018-Jan-04 19:00N 46°48' W 091°56'0 0.2
2018-Jan-04 18:29N 46°48' W 091°56'0 0.3
2018-Jan-04 18:00N 46°48' W 091°56'0 0.3
2018-Jan-04 17:30N 46°48' W 091°56'0 0.2
2018-Jan-04 17:01N 46°48' W 091°56'0 0.0
2018-Jan-04 16:30N 46°48' W 091°56'0 0.1
2018-Jan-04 16:00N 46°48' W 091°56'0 0.0
2018-Jan-04 15:30N 46°48' W 091°56'0 0.0
2018-Jan-04 15:00N 46°48' W 091°56'0 0.1
2018-Jan-04 14:31N 46°48' W 091°56'0 0.1
2018-Jan-04 14:00N 46°48' W 091°56'0 0.3
2018-Jan-04 13:30N 46°48' W 091°56'1 1.5
2018-Jan-04 13:00N 46°47' W 091°55'5 9.3
2018-Jan-04 12:30N 46°49' W 091°49'713.0
2018-Jan-04 12:00N 46°54' W 091°42'713.1
2018-Jan-04 11:30N 46°58' W 091°35'329 7.4
2018-Jan-02 14:54N 45°37' W 083°55'512.1
2018-Jan-02 14:30N 45°32' W 083°54'611.2
2018-Jan-02 14:00N 45°28' W 083°48'510.5
2018-Jan-02 13:31N 45°26' W 083°42'4 8.6
2018-Jan-02 13:01N 45°25' W 083°35'4 8.1
2018-Jan-02 12:30N 45°25' W 083°30'4 8.0
2018-Jan-02 12:00N 45°22' W 083°25'  
Track history (hours):
 
Tides and Currents Weather Stations Pressure Air Temp Water Temp Dewpoint Dewpoint Depression Visibility Wind Speed Wind Dir Waves Ship Positions

American Integrity

Owner: American Steamship Company, Williamsville, NY. More information available from US FCC via Universal Licensing System and Coast Guard Vessel Documentation Center.

Last reported at 2018-Jan-10 19:18 UTC. Time now 2018-Feb-17 20:11 UTC.
Position N 45°42' W 086°05'.
Warning: this ship's position is 38 days out of date.

; draft 8 m.

Type: Cargo ship. MMSI: 367120990.

Date/timePositionNaut miles runAvg speedWind from/ knotsBaromVisibWave heightAir tempDewpointWater temp
2018-Jan-10 19:18N 45°42' W 086°05'410.3
2018-Jan-10 18:54N 45°44' W 086°00'410.8
2018-Jan-10 18:30N 45°46' W 085°55'611.5
2018-Jan-10 18:00N 45°49' W 085°48'611.8
2018-Jan-10 17:31N 45°51' W 085°41'611.6
2018-Jan-10 17:00N 45°54' W 085°33'612.0
2018-Jan-10 16:31N 45°53' W 085°24'510.8
2018-Jan-10 16:00N 45°53' W 085°16'510.5
2018-Jan-10 15:30N 45°52' W 085°09'5 9.9
2018-Jan-10 15:00N 45°51' W 085°02'611.5
2018-Jan-10 14:31N 45°50' W 084°54'612.4
2018-Jan-10 14:00N 45°49' W 084°45'611.1
2018-Jan-10 13:30N 45°50' W 084°37'4 8.5
2018-Jan-10 12:59N 45°52' W 084°31'0 0.6
2018-Jan-10 12:27N 45°52' W 084°31'0 0.0
2018-Jan-10 11:57N 45°52' W 084°31'0 0.0
2018-Jan-10 11:27N 45°52' W 084°31'0 0.0
2018-Jan-10 10:57N 45°52' W 084°31'0 0.0
2018-Jan-10 10:15N 45°52' W 084°31'0 0.0
2018-Jan-10 09:57N 45°52' W 084°31'0 0.0
2018-Jan-10 09:27N 45°52' W 084°31'0 0.0
2018-Jan-10 08:51N 45°52' W 084°31'0 0.0
2018-Jan-10 08:03N 45°52' W 084°31'0 0.1
2018-Jan-10 07:57N 45°52' W 084°31'0 0.5
2018-Jan-10 07:28N 45°52' W 084°31'4 9.7
2018-Jan-10 07:01N 45°52' W 084°25'612.5
2018-Jan-10 06:31N 45°53' W 084°16'  
2018-Jan-08 01:15N 47°01' W 091°31'312.5
2018-Jan-08 01:01N 46°59' W 091°35'612.6
2018-Jan-08 00:30N 46°55' W 091°42'612.5
2018-Jan-08 00:00N 46°52' W 091°50'612.6
2018-Jan-07 23:30N 46°49' W 091°58'510.4
2018-Jan-07 23:01N 46°47' W 092°05'1 2.8
2018-Jan-07 22:30N 46°46' W 092°06'1 2.0
2018-Jan-07 22:00N 46°45' W 092°07'1 1.6
2018-Jan-07 21:30N 46°45' W 092°08'0 0.4
2018-Jan-07 21:00N 46°45' W 092°08'0 0.4
2018-Jan-07 20:29N 46°45' W 092°08'0 0.0
2018-Jan-07 20:00N 46°45' W 092°08'0 0.0
2018-Jan-07 19:30N 46°45' W 092°08'0 0.0
2018-Jan-07 19:00N 46°45' W 092°08'0 0.0
2018-Jan-07 18:30N 46°45' W 092°08'0 0.0
2018-Jan-07 18:00N 46°45' W 092°08'0 0.0
2018-Jan-07 17:29N 46°45' W 092°08'0 0.0
2018-Jan-07 17:00N 46°45' W 092°08'0 0.0
2018-Jan-07 16:29N 46°45' W 092°08'0 0.0
2018-Jan-07 16:00N 46°45' W 092°08'0 0.0
2018-Jan-07 15:30N 46°45' W 092°08'0 0.0
2018-Jan-07 15:01N 46°45' W 092°08'0 0.0
2018-Jan-07 14:30N 46°45' W 092°08'0 0.0
2018-Jan-07 14:00N 46°45' W 092°08'0 0.0
2018-Jan-07 13:30N 46°45' W 092°08'0 0.0
2018-Jan-07 13:00N 46°45' W 092°08'0 0.0
2018-Jan-07 12:30N 46°45' W 092°08'0 0.0
2018-Jan-07 12:00N 46°45' W 092°08'0 0.0
2018-Jan-07 11:30N 46°45' W 092°08'0 0.0
2018-Jan-07 11:00N 46°45' W 092°08'0 0.0
2018-Jan-07 10:31N 46°45' W 092°08'0 0.0
2018-Jan-07 10:00N 46°45' W 092°08'0 0.0
2018-Jan-07 09:31N 46°45' W 092°08'0 0.0
2018-Jan-07 09:00N 46°45' W 092°08'1 1.5
2018-Jan-07 08:30N 46°45' W 092°07'1 2.4
2018-Jan-07 08:00N 46°45' W 092°06'1 2.9
2018-Jan-07 07:30N 46°47' W 092°06'3 6.4
2018-Jan-07 07:01N 46°48' W 092°02'611.5
2018-Jan-07 06:30N 46°50' W 091°54'510.7
2018-Jan-07 06:00N 46°52' W 091°47'611.1
2018-Jan-07 05:30N 46°54' W 091°39'611.2
2018-Jan-07 05:00N 46°57' W 091°32'4 6.3
2018-Jan-07 04:21N 46°59' W 091°27'2 6.7
2018-Jan-07 04:00N 46°58' W 091°30'3 6.7
2018-Jan-07 03:30N 46°56' W 091°34'3 6.5
2018-Jan-07 03:00N 46°54' W 091°38'3 6.4
2018-Jan-07 02:30N 46°53' W 091°42'4 7.1
2018-Jan-07 02:00N 46°51' W 091°46'5 9.8
2018-Jan-07 01:30N 46°49' W 091°52'4 4.2
2018-Jan-07 00:30N 46°50' W 091°47'611.6
2018-Jan-07 00:01N 46°48' W 091°54'611.0
2018-Jan-06 23:31N 46°47' W 092°02'3 5.5
2018-Jan-06 23:01N 46°46' W 092°06'2 3.1
2018-Jan-06 22:30N 46°45' W 092°07'1 1.9
2018-Jan-06 22:00N 46°45' W 092°08'0 0.0
2018-Jan-06 21:30N 46°45' W 092°08'0 0.0
2018-Jan-06 21:01N 46°45' W 092°08'0 0.0
2018-Jan-06 20:30N 46°45' W 092°08'0 0.0
2018-Jan-06 20:01N 46°45' W 092°08'0 0.0
2018-Jan-06 19:30N 46°45' W 092°08'0 0.0
2018-Jan-06 19:01N 46°45' W 092°08'0 0.0
2018-Jan-06 18:30N 46°45' W 092°08'0 0.0
2018-Jan-06 18:00N 46°45' W 092°08'0 0.0
2018-Jan-06 17:30N 46°45' W 092°08'0 0.0
2018-Jan-06 17:00N 46°45' W 092°08'0 0.0
2018-Jan-06 16:29N 46°45' W 092°08'0 0.0
2018-Jan-06 16:00N 46°45' W 092°08'0 0.0
2018-Jan-06 15:29N 46°45' W 092°08'0 0.0
2018-Jan-06 15:00N 46°45' W 092°08'0 0.0
2018-Jan-06 14:30N 46°45' W 092°08'0 0.0
2018-Jan-06 14:00N 46°45' W 092°08'0 0.0
2018-Jan-06 13:30N 46°45' W 092°08'0 0.0
2018-Jan-06 13:00N 46°45' W 092°08'0 0.0
2018-Jan-06 12:30N 46°45' W 092°08'0 0.0
2018-Jan-06 12:00N 46°45' W 092°08'0 0.0
2018-Jan-06 11:30N 46°45' W 092°08'0 0.0
2018-Jan-06 11:01N 46°45' W 092°08'0 0.0
2018-Jan-06 10:31N 46°45' W 092°08'0 0.0
2018-Jan-06 10:00N 46°45' W 092°08'0 0.0
2018-Jan-06 09:30N 46°45' W 092°08'0 0.0
2018-Jan-06 09:01N 46°45' W 092°08'0 0.0
2018-Jan-06 08:30N 46°45' W 092°08'0 0.0
2018-Jan-06 07:59N 46°45' W 092°08'0 0.0
2018-Jan-06 07:30N 46°45' W 092°08'0 0.0
2018-Jan-06 07:01N 46°45' W 092°08'0 0.0
2018-Jan-06 06:31N 46°45' W 092°08'0 0.0
2018-Jan-06 06:01N 46°45' W 092°08'0 0.0
2018-Jan-06 05:30N 46°45' W 092°08'0 0.0
2018-Jan-06 05:00N 46°45' W 092°08'0 0.0
2018-Jan-06 04:30N 46°45' W 092°08'0 0.0
2018-Jan-06 04:00N 46°45' W 092°08'0 0.0
2018-Jan-06 03:30N 46°45' W 092°08'0 0.0
2018-Jan-06 03:00N 46°45' W 092°08'0 0.0
2018-Jan-06 02:30N 46°45' W 092°08'0 0.0
2018-Jan-06 02:00N 46°45' W 092°08'0 0.0
2018-Jan-06 01:30N 46°45' W 092°08'0 0.0
2018-Jan-06 01:00N 46°45' W 092°08'0 0.0
2018-Jan-06 00:30N 46°45' W 092°08'0 0.0
2018-Jan-06 00:00N 46°45' W 092°08'0 0.0
2018-Jan-05 23:30N 46°45' W 092°08'0 0.0
2018-Jan-05 23:00N 46°45' W 092°08'0 0.0
2018-Jan-05 22:30N 46°45' W 092°08'0 0.1
2018-Jan-05 22:00N 46°45' W 092°08'0 0.5
2018-Jan-05 21:30N 46°45' W 092°08'0 0.4
2018-Jan-05 21:01N 46°45' W 092°08'0 0.4
2018-Jan-05 20:31N 46°45' W 092°07'0 1.0
2018-Jan-05 20:01N 46°45' W 092°07'1 1.8
2018-Jan-05 19:31N 46°45' W 092°06'2 4.6
2018-Jan-05 19:00N 46°47' W 092°04'611.5
2018-Jan-05 18:30N 46°49' W 091°56'2 3.7
2018-Jan-05 18:00N 46°47' W 091°55'0 0.0
2018-Jan-05 17:30N 46°47' W 091°55'0 0.1
2018-Jan-05 17:01N 46°47' W 091°55'0 0.1
2018-Jan-05 16:30N 46°47' W 091°55'0 0.1
2018-Jan-05 16:01N 46°47' W 091°55'0 0.1
2018-Jan-05 15:30N 46°47' W 091°55'0 0.0
2018-Jan-05 15:01N 46°47' W 091°55'0 0.0
2018-Jan-05 14:31N 46°47' W 091°55'0 0.0
2018-Jan-05 14:00N 46°47' W 091°55'0 0.0
2018-Jan-05 13:30N 46°47' W 091°55'0 0.0
2018-Jan-05 13:00N 46°47' W 091°55'1 1.2
2018-Jan-05 12:31N 46°46' W 091°56'1 2.8
2018-Jan-05 12:00N 46°48' W 091°56'0 0.1
2018-Jan-05 11:30N 46°48' W 091°56'0 0.1
2018-Jan-05 11:00N 46°48' W 091°56'0 0.1
2018-Jan-05 10:30N 46°48' W 091°56'0 0.0
2018-Jan-05 10:00N 46°48' W 091°56'0 0.0
2018-Jan-05 09:30N 46°48' W 091°56'0 0.0
2018-Jan-05 09:00N 46°48' W 091°56'0 0.1
2018-Jan-05 08:30N 46°48' W 091°56'0 0.0
2018-Jan-05 08:00N 46°48' W 091°56'0 0.0
2018-Jan-05 07:31N 46°48' W 091°56'0 0.0
2018-Jan-05 07:01N 46°48' W 091°56'0 0.0
2018-Jan-05 06:30N 46°48' W 091°56'0 0.0
2018-Jan-05 06:00N 46°48' W 091°56'0 0.0
2018-Jan-05 05:31N 46°48' W 091°56'0 0.0
2018-Jan-05 05:00N 46°48' W 091°56'0 0.1
2018-Jan-05 04:30N 46°48' W 091°56'0 0.0
2018-Jan-05 04:01N 46°48' W 091°56'0 0.0
2018-Jan-05 03:30N 46°48' W 091°56'0 0.0
2018-Jan-05 03:00N 46°48' W 091°56'0 0.0
2018-Jan-05 02:30N 46°48' W 091°56'0 0.0
2018-Jan-05 02:00N 46°48' W 091°56'0 0.0
2018-Jan-05 01:31N 46°48' W 091°56'0 0.0
2018-Jan-05 01:01N 46°48' W 091°56'0 0.0
2018-Jan-05 00:30N 46°48' W 091°56'0 0.0
2018-Jan-05 00:00N 46°48' W 091°56'0 0.0
2018-Jan-04 23:30N 46°48' W 091°56'0 0.1
2018-Jan-04 23:00N 46°48' W 091°56'0 0.5
2018-Jan-04 22:30N 46°48' W 091°56'0 0.1
2018-Jan-04 22:00N 46°48' W 091°56'0 0.1
2018-Jan-04 21:30N 46°48' W 091°56'0 0.0
2018-Jan-04 21:00N 46°48' W 091°56'0 0.0
2018-Jan-04 20:30N 46°48' W 091°56'0 0.0
2018-Jan-04 20:00N 46°48' W 091°56'0 0.0
2018-Jan-04 19:30N 46°48' W 091°56'0 0.1
2018-Jan-04 19:00N 46°48' W 091°56'0 0.2
2018-Jan-04 18:29N 46°48' W 091°56'0 0.3
2018-Jan-04 18:00N 46°48' W 091°56'0 0.3
2018-Jan-04 17:30N 46°48' W 091°56'0 0.2
2018-Jan-04 17:01N 46°48' W 091°56'0 0.0
2018-Jan-04 16:30N 46°48' W 091°56'0 0.1
2018-Jan-04 16:00N 46°48' W 091°56'0 0.0
2018-Jan-04 15:30N 46°48' W 091°56'0 0.0
2018-Jan-04 15:00N 46°48' W 091°56'0 0.1
2018-Jan-04 14:31N 46°48' W 091°56'0 0.1
2018-Jan-04 14:00N 46°48' W 091°56'0 0.3
2018-Jan-04 13:30N 46°48' W 091°56'1 1.5
2018-Jan-04 13:00N 46°47' W 091°55'5 9.3
2018-Jan-04 12:30N 46°49' W 091°49'713.0
2018-Jan-04 12:00N 46°54' W 091°42'713.1
2018-Jan-04 11:30N 46°58' W 091°35'329 7.4
2018-Jan-02 14:54N 45°37' W 083°55'512.1
2018-Jan-02 14:30N 45°32' W 083°54'611.2
2018-Jan-02 14:00N 45°28' W 083°48'510.5
2018-Jan-02 13:31N 45°26' W 083°42'4 8.6
2018-Jan-02 13:01N 45°25' W 083°35'4 8.1
2018-Jan-02 12:30N 45°25' W 083°30'4 8.0
2018-Jan-02 12:00N 45°22' W 083°25'  

Dump ship's entire track history